Time;durP1;ratioP1;P1;durP2;ratioP2;P2;SDS_P1;SDS_P2;PMS_P1;PMS_P2;Temp;Humidity;BMP_temperature;BMP_pressure;BME280_temperature;BME280_humidity;BME280_pressure;Samples;Min_cycle;Max_cycle;Signal;HPM_P1;HPM_P2
2023/10/13 00:02:04;;;;;;;9.63;3.93;;;20.50;74.50;;;;;;5050493;28;20460;-74
2023/10/13 00:04:32;;;;;;;12.90;3.80;;;20.40;74.80;;;;;;5069318;28;20494;-74
2023/10/13 00:06:59;;;;;;;10.63;3.40;;;20.40;74.30;;;;;;5069404;28;20468;-74
2023/10/13 00:09:25;;;;;;;14.13;4.13;;;20.30;74.60;;;;;;5069389;28;20425;-74
2023/10/13 00:11:55;;;;;;;8.97;3.40;;;20.30;73.90;;;;;;5051150;28;21000;-74
2023/10/13 00:14:32;;;;;;;15.40;3.50;;;20.40;73.50;;;;;;5068005;28;20439;-74
2023/10/13 00:17:20;;;;;;;8.13;4.10;;;20.40;73.50;;;;;;5068117;28;20463;-74
2023/10/13 00:19:46;;;;;;;10.90;4.20;;;20.40;73.30;;;;;;5069297;28;20437;-74
2023/10/13 00:22:19;;;;;;;8.70;3.80;;;20.40;74.00;;;;;;5069114;28;20782;-73
2023/10/13 00:24:45;;;;;;;10.77;3.63;;;20.40;73.80;;;;;;5051797;28;20491;-73
2023/10/13 00:27:30;;;;;;;10.20;3.80;;;20.40;78.30;;;;;;5067641;28;20469;-73
2023/10/13 00:32:52;;;;;;;13.10;4.00;;;20.30;77.40;;;;;;5068816;28;20429;-73
2023/10/13 00:35:36;;;;;;;8.83;4.20;;;20.20;75.80;;;;;;5067038;28;20875;-73
2023/10/13 00:41:14;;;;;;;7.57;3.93;;;20.10;73.00;;;;;;5045580;28;20425;-74
2023/10/13 00:43:45;;;;;;;7.57;3.77;;;20.10;71.30;;;;;;5069062;28;20460;-72
2023/10/13 00:46:13;;;;;;;9.93;3.30;;;20.20;70.90;;;;;;5068999;28;20437;-75
2023/10/13 00:48:43;;;;;;;10.43;4.77;;;20.30;71.30;;;;;;5067862;28;20927;-74
2023/10/13 00:53:56;;;;;;;8.77;3.20;;;20.30;70.60;;;;;;5069059;28;20497;-74
2023/10/13 00:56:27;;;;;;;7.63;3.80;;;20.30;71.60;;;;;;5067139;28;20845;-73
2023/10/13 00:58:54;;;;;;;8.00;3.90;;;20.30;72.20;;;;;;5068462;28;20439;-74
2023/10/13 01:01:22;;;;;;;13.97;3.00;;;20.10;75.60;;;;;;5066496;28;20465;-74
2023/10/13 01:03:55;;;;;;;11.50;4.10;;;20.10;71.80;;;;;;5066852;28;20479;-74
2023/10/13 01:06:28;;;;;;;9.80;4.37;;;20.00;76.40;;;;;;5066408;28;20495;-74
2023/10/13 01:09:13;;;;;;;12.97;5.00;;;19.90;77.70;;;;;;5068126;28;20419;-74
2023/10/13 01:11:40;;;;;;;11.37;4.57;;;19.70;76.20;;;;;;5068139;28;20472;-73
2023/10/13 01:14:06;;;;;;;10.10;4.17;;;19.70;79.30;;;;;;5070767;28;20436;-74
2023/10/13 01:16:32;;;;;;;8.30;3.70;;;19.70;78.30;;;;;;5070540;28;20449;-74
2023/10/13 01:19:04;;;;;;;15.07;3.77;;;19.50;75.90;;;;;;5072355;28;20209;-74
2023/10/13 01:21:32;;;;;;;10.43;4.20;;;19.40;77.70;;;;;;5071112;28;20467;-73
2023/10/13 01:23:58;;;;;;;7.70;3.80;;;19.40;75.50;;;;;;5072304;28;20566;-73
2023/10/13 01:26:24;;;;;;;8.37;3.70;;;19.30;76.10;;;;;;5072352;28;20526;-74
2023/10/13 01:28:51;;;;;;;7.57;3.27;;;19.30;77.50;;;;;;5072501;28;20180;-74
2023/10/13 01:31:25;;;;;;;10.50;3.87;;;19.10;78.30;;;;;;5072349;28;20434;-74
2023/10/13 01:33:54;;;;;;;7.77;3.83;;;19.00;80.40;;;;;;5072402;28;20424;-73
2023/10/13 01:36:23;;;;;;;10.53;3.97;;;18.80;79.30;;;;;;5072296;28;20444;-73
2023/10/13 01:38:49;;;;;;;5.50;3.50;;;18.60;87.80;;;;;;5072185;28;20421;-73
2023/10/13 01:41:16;;;;;;;12.47;4.20;;;18.60;87.60;;;;;;5072198;28;20433;-73
2023/10/13 01:43:42;;;;;;;9.90;4.03;;;18.50;90.00;;;;;;5072151;28;20455;-73
2023/10/13 01:46:09;;;;;;;10.83;3.80;;;18.50;88.00;;;;;;5070443;28;20453;-73
2023/10/13 01:48:38;;;;;;;17.97;3.80;;;18.30;85.10;;;;;;5070744;28;20425;-73
2023/10/13 01:51:06;;;;;;;8.97;3.40;;;18.40;85.40;;;;;;5071929;28;20423;-74
2023/10/13 01:53:31;;;;;;;8.80;3.83;;;18.30;86.50;;;;;;5070458;28;20486;-73
2023/10/13 01:55:57;;;;;;;7.20;4.10;;;18.30;85.80;;;;;;5070586;28;20852;-73
2023/10/13 01:58:26;;;;;;;13.83;4.50;;;18.20;91.70;;;;;;5071063;28;20183;-73
2023/10/13 02:00:52;;;;;;;10.77;3.70;;;18.10;99.90;;;;;;5071992;28;20182;-73
2023/10/13 02:03:18;;;;;;;9.60;4.67;;;18.00;99.90;;;;;;5071984;28;20516;-73
2023/10/13 02:05:48;;;;;;;11.03;4.17;;;17.90;99.90;;;;;;5071799;28;20571;-73
2023/10/13 02:08:22;;;;;;;11.30;4.03;;;17.80;99.90;;;;;;5071801;28;20413;-73
2023/10/13 02:10:48;;;;;;;11.90;4.40;;;17.80;99.90;;;;;;5070260;28;20782;-73
2023/10/13 02:13:17;;;;;;;10.63;3.70;;;17.80;99.90;;;;;;5069978;28;20849;-74
2023/10/13 02:15:44;;;;;;;6.87;3.57;;;17.90;99.90;;;;;;5071118;28;20449;-74
2023/10/13 02:18:10;;;;;;;5.70;3.83;;;17.90;99.90;;;;;;5070997;28;20472;-74
2023/10/13 02:20:43;;;;;;;11.73;3.83;;;17.90;99.90;;;;;;5069653;28;20490;-74
2023/10/13 02:23:10;;;;;;;11.87;4.20;;;17.90;99.90;;;;;;5070008;28;20996;-74
2023/10/13 02:25:42;;;;;;;13.43;4.63;;;18.20;99.90;;;;;;5068527;28;20551;-74
2023/10/13 02:28:21;;;;;;;13.90;4.37;;;18.30;99.90;;;;;;5069800;28;20813;-74
2023/10/13 02:30:48;;;;;;;10.20;4.10;;;18.30;99.90;;;;;;5070754;28;20493;-74
2023/10/13 02:33:14;;;;;;;9.23;4.57;;;18.20;99.90;;;;;;5070874;28;20421;-75
2023/10/13 02:35:46;;;;;;;7.30;3.67;;;18.20;99.90;;;;;;5071119;28;21128;-74
2023/10/13 02:38:12;;;;;;;9.97;3.90;;;18.10;99.90;;;;;;5069578;28;20417;-74
2023/10/13 02:40:40;;;;;;;11.80;3.80;;;18.10;99.90;;;;;;5069472;28;20436;-74
2023/10/13 02:43:05;;;;;;;8.37;4.27;;;18.20;99.90;;;;;;5068946;28;20195;-73
2023/10/13 02:45:37;;;;;;;9.90;3.30;;;18.10;99.90;;;;;;5070321;28;20468;-73
2023/10/13 02:48:13;;;;;;;7.90;3.60;;;18.20;99.90;;;;;;5070176;28;20552;-73
2023/10/13 02:50:43;;;;;;;13.47;4.40;;;18.30;99.90;;;;;;5068764;28;20427;-74
2023/10/13 02:53:12;;;;;;;11.73;4.63;;;18.40;99.90;;;;;;5068621;28;20512;-74
2023/10/13 02:55:48;;;;;;;9.57;3.70;;;18.50;99.90;;;;;;5068742;28;20454;-74
2023/10/13 02:58:14;;;;;;;12.80;4.17;;;18.60;99.60;;;;;;5068438;28;20422;-74
2023/10/13 03:00:41;;;;;;;13.53;3.93;;;18.60;99.30;;;;;;5068699;28;20934;-74
2023/10/13 03:03:07;;;;;;;8.67;4.03;;;18.80;99.10;;;;;;5069814;28;21033;-74
2023/10/13 03:05:35;;;;;;;15.37;4.40;;;18.90;98.90;;;;;;5068041;28;20488;-74
2023/10/13 03:08:04;;;;;;;9.20;4.13;;;18.90;98.90;;;;;;5051421;28;20424;-74
2023/10/13 03:10:29;;;;;;;5.90;3.93;;;18.80;99.40;;;;;;5069680;28;20456;-74
2023/10/13 03:12:55;;;;;;;18.07;4.87;;;18.60;99.80;;;;;;5069593;28;20958;-74
2023/10/13 03:15:28;;;;;;;10.80;3.93;;;18.60;99.50;;;;;;5069321;28;20298;-74
2023/10/13 03:17:54;;;;;;;8.03;3.87;;;18.60;99.60;;;;;;5069363;28;20425;-74
2023/10/13 03:20:42;;;;;;;10.63;3.77;;;18.60;99.90;;;;;;5069417;28;20923;-73
2023/10/13 03:23:09;;;;;;;12.63;4.17;;;18.50;99.90;;;;;;5067523;28;20213;-74
2023/10/13 03:25:42;;;;;;;8.50;3.60;;;18.50;99.90;;;;;;5067516;28;20864;-73
2023/10/13 03:28:13;;;;;;;9.50;4.20;;;18.40;99.90;;;;;;5069402;28;20844;-73
2023/10/13 03:30:41;;;;;;;11.93;4.70;;;18.60;99.40;;;;;;5067676;28;21072;-74
2023/10/13 03:33:25;;;;;;;8.43;4.43;;;18.80;99.40;;;;;;5067740;28;20790;-74
2023/10/13 03:35:54;;;;;;;11.17;4.27;;;18.70;99.30;;;;;;5068986;28;20440;-74
2023/10/13 03:38:20;;;;;;;10.57;4.07;;;18.60;99.40;;;;;;5069223;28;20434;-74
2023/10/13 03:40:56;;;;;;;10.93;4.13;;;18.70;98.90;;;;;;5050731;28;20444;-74
2023/10/13 03:43:22;;;;;;;11.60;4.37;;;18.50;99.20;;;;;;5069073;28;20990;-74
2023/10/13 03:45:52;;;;;;;12.07;4.40;;;18.50;99.00;;;;;;5068772;28;20538;-74
2023/10/13 03:53:54;;;;;;;7.87;4.10;;;18.80;98.40;;;;;;5068765;28;20427;-74
2023/10/13 03:56:26;;;;;;;12.93;4.03;;;18.80;98.20;;;;;;5068896;28;20527;-73
2023/10/13 03:58:59;;;;;;;13.53;5.03;;;18.80;99.00;;;;;;5068823;28;20412;-74
2023/10/13 04:02:27;;;;;;;10.27;4.13;;;18.70;98.20;;;;;;5067235;28;20454;-74
2023/10/13 04:04:48;;;;;;;8.93;4.10;;;18.50;98.70;;;;;;5054127;28;21214;-73
2023/10/13 04:11:44;;;;;;;6.40;3.83;;;18.80;98.50;;;;;;5046932;28;20423;-73
2023/10/13 04:16:02;;;;;;;7.53;4.20;;;18.70;98.50;;;;;;5068579;28;20501;-73
2023/10/13 04:18:34;;;;;;;6.17;3.73;;;18.60;98.70;;;;;;5066935;28;20813;-73
2023/10/13 04:21:08;;;;;;;11.13;4.53;;;18.70;98.30;;;;;;5068521;28;20452;-73
2023/10/13 04:24:09;;;;;;;9.77;4.23;;;18.90;98.00;;;;;;5051211;28;20461;-72
2023/10/13 04:26:23;;;;;;;15.10;4.57;;;18.80;98.20;;;;;;5068224;28;20486;-73
2023/10/13 04:28:52;;;;;;;12.10;4.10;;;18.80;98.10;;;;;;5068337;28;20872;-73
2023/10/13 04:31:46;;;;;;;15.63;3.90;;;18.90;97.70;;;;;;5067228;28;20424;-73
2023/10/13 04:34:19;;;;;;;7.90;4.47;;;18.90;97.80;;;;;;5066896;28;20436;-73
2023/10/13 04:36:46;;;;;;;19.93;4.70;;;18.80;97.70;;;;;;5068416;28;20448;-74
2023/10/13 04:39:16;;;;;;;11.50;4.23;;;18.80;98.10;;;;;;5069002;28;20949;-74
2023/10/13 04:41:42;;;;;;;10.30;3.90;;;18.80;97.60;;;;;;5051631;28;20479;-74
2023/10/13 04:50:00;;;;;;;13.70;3.80;;;18.70;98.00;;;;;;5070443;28;20432;-73
2023/10/13 04:52:45;;;;;;;13.67;4.37;;;18.80;98.00;;;;;;5068314;28;20432;-73
2023/10/13 04:55:59;;;;;;;13.07;4.30;;;18.80;97.90;;;;;;5071640;28;20472;-73
2023/10/13 04:58:28;;;;;;;7.20;4.20;;;18.80;98.20;;;;;;5069603;28;20837;-74
2023/10/13 05:45:24;;;;;;;16.90;4.50;;;18.60;98.20;;;;;;5071251;28;20833;-72
2023/10/13 05:48:01;;;;;;;11.13;4.53;;;18.70;98.10;;;;;;5071265;28;20834;-73
2023/10/13 06:31:06;;;;;;;12.13;4.20;;;19.40;95.50;;;;;;5070847;28;20603;-72
2023/10/13 06:33:33;;;;;;;6.30;3.87;;;19.30;95.90;;;;;;5069079;28;20413;-72
2023/10/13 06:36:01;;;;;;;6.20;3.60;;;19.20;96.20;;;;;;5070296;28;20442;-73
2023/10/13 06:38:35;;;;;;;13.20;4.10;;;19.20;96.20;;;;;;5070421;28;20416;-73
2023/10/13 06:41:05;;;;;;;12.93;4.00;;;19.00;96.60;;;;;;5070239;28;20900;-73
2023/10/13 06:43:32;;;;;;;6.77;3.67;;;19.00;96.50;;;;;;5070450;28;20429;-73
2023/10/13 06:46:03;;;;;;;15.60;4.77;;;19.00;96.90;;;;;;5068512;28;20484;-73
2023/10/13 06:48:33;;;;;;;8.00;3.70;;;19.00;97.10;;;;;;5068777;28;20440;-73
2023/10/13 06:51:04;;;;;;;9.07;3.60;;;19.10;97.20;;;;;;5070188;28;20411;-73
2023/10/13 06:53:30;;;;;;;7.47;3.90;;;19.10;96.90;;;;;;5068736;28;20417;-73
2023/10/13 06:55:58;;;;;;;13.33;4.03;;;19.00;96.90;;;;;;5070034;28;20439;-73
2023/10/13 06:58:25;;;;;;;7.77;3.67;;;19.10;97.00;;;;;;5070087;28;20175;-73
2023/10/13 07:00:55;;;;;;;7.73;4.03;;;19.10;96.80;;;;;;5070102;28;20425;-73
2023/10/13 07:03:24;;;;;;;12.13;4.40;;;19.20;96.90;;;;;;5068536;28;20444;-73
2023/10/13 07:05:51;;;;;;;16.83;4.83;;;19.20;97.10;;;;;;5067400;28;21314;-73
2023/10/13 07:08:19;;;;;;;8.70;4.10;;;19.20;96.80;;;;;;5069170;28;20514;-73
2023/10/13 07:11:05;;;;;;;9.83;4.33;;;19.20;97.30;;;;;;5068696;28;20542;-73
2023/10/13 07:13:35;;;;;;;10.03;3.77;;;19.30;96.50;;;;;;5068957;28;20416;-72
2023/10/13 07:16:05;;;;;;;9.33;3.13;;;19.40;95.40;;;;;;5051234;28;20456;-73
2023/10/13 07:18:36;;;;;;;16.23;4.37;;;19.60;94.30;;;;;;5067551;28;20511;-72
2023/10/13 07:21:09;;;;;;;8.40;3.50;;;19.70;93.60;;;;;;5067359;28;20428;-72
2023/10/13 07:23:36;;;;;;;10.50;3.83;;;19.80;93.70;;;;;;5068507;28;20931;-74
2023/10/13 07:26:04;;;;;;;13.43;3.80;;;19.90;93.60;;;;;;5068217;28;20525;-74
2023/10/13 07:28:36;;;;;;;11.30;3.80;;;20.00;94.00;;;;;;5050346;28;20480;-74
2023/10/13 07:33:31;;;;;;;12.53;3.93;;;20.00;93.60;;;;;;5067856;28;20425;-74
2023/10/13 07:36:10;;;;;;;11.57;3.97;;;20.00;93.30;;;;;;5066260;28;20457;-74
2023/10/13 07:38:37;;;;;;;8.93;2.83;;;20.00;93.40;;;;;;5066791;28;20421;-73
2023/10/13 07:41:09;;;;;;;24.47;4.77;;;20.00;93.30;;;;;;5050523;28;20847;-74
2023/10/13 07:43:37;;;;;;;9.47;3.57;;;20.10;93.30;;;;;;5066366;28;20432;-75
2023/10/13 07:46:09;;;;;;;8.33;3.50;;;20.10;93.30;;;;;;5067542;28;20496;-71
2023/10/13 07:48:38;;;;;;;4.43;2.80;;;20.20;93.50;;;;;;5066347;28;20433;-71
2023/10/13 07:51:16;;;;;;;7.17;4.20;;;20.30;93.00;;;;;;5067558;28;20408;-72
2023/10/13 07:53:43;;;;;;;10.53;3.40;;;20.40;93.00;;;;;;5065861;28;20895;-72
2023/10/13 07:56:11;;;;;;;9.10;3.53;;;20.50;92.60;;;;;;5066173;28;20897;-72
2023/10/13 07:58:47;;;;;;;6.53;3.40;;;20.70;92.40;;;;;;5066073;28;20452;-72
2023/10/13 08:01:17;;;;;;;8.57;3.63;;;20.80;92.00;;;;;;5066033;28;20448;-71
2023/10/13 08:03:44;;;;;;;24.23;3.83;;;21.00;92.20;;;;;;5050135;28;20579;-72
2023/10/13 08:08:39;;;;;;;9.17;3.90;;;21.00;91.60;;;;;;5067732;28;20800;-72
2023/10/13 08:11:24;;;;;;;9.07;3.60;;;21.20;90.80;;;;;;5067919;28;20418;-73
2023/10/13 08:13:54;;;;;;;15.83;3.57;;;21.40;90.30;;;;;;5066523;28;20187;-73
2023/10/13 08:19:15;;;;;;;7.73;2.73;;;21.90;87.40;;;;;;5058607;28;20870;-73
2023/10/13 08:21:49;;;;;;;16.90;4.00;;;22.00;86.30;;;;;;5067663;28;20420;-73
2023/10/13 08:24:16;;;;;;;16.97;3.60;;;22.20;84.60;;;;;;5066766;28;20473;-72
2023/10/13 08:27:02;;;;;;;11.10;3.40;;;22.30;84.50;;;;;;5065904;28;20429;-73
2023/10/13 08:34:38;;;;;;;12.53;3.70;;;22.70;81.80;;;;;;5065511;28;20649;-73
2023/10/13 08:39:58;;;;;;;10.30;2.80;;;23.20;82.60;;;;;;5065502;28;20873;-73
2023/10/13 08:45:53;;;;;;;7.40;2.80;;;23.50;78.60;;;;;;5066823;28;20995;-73
2023/10/13 08:48:12;;;;;;;9.77;3.17;;;23.70;79.50;;;;;;5066595;28;20918;-72
2023/10/13 08:50:52;;;;;;;10.20;3.20;;;23.90;78.10;;;;;;5066994;28;20446;-72
2023/10/13 08:54:08;;;;;;;16.43;3.67;;;24.10;76.90;;;;;;5065231;28;20412;-72
2023/10/13 08:56:17;;;;;;;4.60;2.47;;;24.40;76.10;;;;;;5060846;28;20795;-72
2023/10/13 09:01:59;;;;;;;11.97;3.77;;;25.80;76.10;;;;;;5066568;28;20449;-72
2023/10/13 09:04:34;;;;;;;8.73;3.53;;;25.90;74.90;;;;;;5064862;28;20472;-72
2023/10/13 09:07:08;;;;;;;6.00;3.17;;;26.40;74.30;;;;;;5065161;28;20447;-72
2023/10/13 09:09:59;;;;;;;10.70;3.23;;;26.60;72.60;;;;;;5066757;28;20420;-73
2023/10/13 09:15:05;;;;;;;11.10;3.00;;;27.40;73.30;;;;;;5066596;28;20782;-73
2023/10/13 09:17:34;;;;;;;6.57;3.20;;;27.20;70.50;;;;;;5066656;28;20435;-73
2023/10/13 09:25:34;;;;;;;7.37;3.33;;;29.30;68.60;;;;;;5066420;28;20563;-74
2023/10/13 09:28:21;;;;;;;10.20;3.93;;;30.30;69.90;;;;;;5064730;28;20426;-73
2023/10/13 09:30:48;;;;;;;17.03;4.37;;;31.00;67.20;;;;;;5064617;28;20457;-74
2023/10/13 09:33:35;;;;;;;10.57;3.63;;;31.30;64.00;;;;;;5066168;28;20436;-73
2023/10/13 09:36:04;;;;;;;15.07;3.30;;;31.00;64.90;;;;;;5070513;28;20448;-72
2023/10/13 09:38:33;;;;;;;10.00;3.50;;;31.60;65.80;;;;;;5052455;28;20504;-73
2023/10/13 09:41:17;;;;;;;5.00;3.00;;;31.70;64.50;;;;;;5069916;28;20444;-73
2023/10/13 09:43:43;;;;;;;10.40;3.43;;;32.30;62.80;;;;;;5069801;28;20509;-72
2023/10/13 09:46:17;;;;;;;12.63;3.10;;;30.90;58.90;;;;;;5068139;28;20552;-73
2023/10/13 09:48:47;;;;;;;12.00;3.47;;;31.50;63.20;;;;;;5069911;28;20421;-70
2023/10/13 09:51:21;;;;;;;6.53;2.83;;;31.40;60.10;;;;;;5069780;28;20903;-70
2023/10/13 09:54:06;;;;;;;8.53;3.00;;;31.10;59.90;;;;;;5069671;28;20420;-70
2023/10/13 09:56:54;;;;;;;6.23;2.90;;;30.50;59.10;;;;;;5069580;28;20433;-70
2023/10/13 09:59:34;;;;;;;11.63;3.13;;;30.30;59.90;;;;;;5069596;28;20414;-70
2023/10/13 10:02:08;;;;;;;8.43;2.63;;;30.20;60.70;;;;;;5069187;28;20468;-70
2023/10/13 10:04:50;;;;;;;13.80;3.80;;;30.90;59.30;;;;;;5069344;28;20469;-70
2023/10/13 10:07:24;;;;;;;4.97;2.77;;;31.30;59.70;;;;;;5069393;28;21092;-70
2023/10/13 10:09:56;;;;;;;9.13;3.03;;;31.10;58.90;;;;;;5067541;28;20427;-70
2023/10/13 10:12:22;;;;;;;8.73;3.43;;;31.80;58.20;;;;;;5069181;28;20419;-70
2023/10/13 10:15:02;;;;;;;7.63;3.03;;;31.10;57.80;;;;;;5069139;28;20512;-71
2023/10/13 10:17:33;;;;;;;4.63;3.20;;;31.00;57.80;;;;;;5069151;28;20190;-69
2023/10/13 10:19:58;;;;;;;6.03;3.27;;;32.00;59.40;;;;;;5069176;28;20426;-71
2023/10/13 10:22:36;;;;;;;13.90;3.43;;;32.70;57.80;;;;;;5067607;28;20429;-72
2023/10/13 10:25:24;;;;;;;8.70;3.80;;;32.70;57.90;;;;;;5068698;28;20199;-70
2023/10/13 10:27:58;;;;;;;10.33;3.60;;;33.30;58.00;;;;;;5068934;28;20860;-70
2023/10/13 10:30:28;;;;;;;7.17;3.50;;;33.70;56.40;;;;;;5068923;28;20504;-71
2023/10/13 10:33:01;;;;;;;6.67;3.17;;;34.00;55.80;;;;;;5068798;28;20475;-70
2023/10/13 10:35:32;;;;;;;24.97;3.67;;;34.10;56.30;;;;;;5068692;28;20446;-69
2023/10/13 10:38:11;;;;;;;14.33;3.63;;;34.30;56.60;;;;;;5067358;28;20421;-70
2023/10/13 10:40:58;;;;;;;4.80;2.93;;;34.20;56.30;;;;;;5068991;28;20415;-71
2023/10/13 10:43:46;;;;;;;12.27;3.60;;;34.10;55.10;;;;;;5067565;28;20907;-71
2023/10/13 10:46:13;;;;;;;9.23;3.47;;;34.10;55.10;;;;;;5067870;28;20461;-70
2023/10/13 10:48:42;;;;;;;8.87;3.40;;;33.90;56.70;;;;;;5067356;28;20417;-71
2023/10/13 10:51:43;;;;;;;9.00;3.20;;;33.80;57.00;;;;;;5068578;28;20446;-71
2023/10/13 10:54:12;;;;;;;7.63;3.17;;;33.70;56.00;;;;;;5066102;28;20426;-70
2023/10/13 10:56:38;;;;;;;8.17;3.80;;;33.20;55.50;;;;;;5051786;28;20482;-71
2023/10/13 10:59:15;;;;;;;5.67;3.77;;;33.10;57.90;;;;;;5068553;28;20872;-72
2023/10/13 11:01:46;;;;;;;9.90;3.23;;;32.90;56.40;;;;;;5066696;28;20253;-71
2023/10/13 11:06:54;;;;;;;7.57;2.80;;;33.00;55.50;;;;;;5066637;28;20445;-73
2023/10/13 11:12:13;;;;;;;12.60;3.50;;;32.10;53.90;;;;;;5067017;28;20424;-72
2023/10/13 11:14:39;;;;;;;4.23;2.80;;;31.70;54.10;;;;;;5068465;28;21004;-78
2023/10/13 11:17:13;;;;;;;10.13;2.77;;;31.40;56.10;;;;;;5069501;28;20441;-77
2023/10/13 11:19:40;;;;;;;8.63;3.30;;;30.90;53.30;;;;;;5069107;28;20183;-77
2023/10/13 11:22:32;;;;;;;7.13;3.50;;;30.60;53.00;;;;;;5072617;28;20413;-79
2023/10/13 11:25:11;;;;;;;8.80;2.77;;;30.20;56.10;;;;;;5068864;28;20461;-77
2023/10/13 11:30:40;;;;;;;5.43;3.13;;;29.80;53.20;;;;;;5072696;28;20527;-78
2023/10/13 11:33:10;;;;;;;5.70;3.07;;;29.90;55.80;;;;;;5068781;28;20430;-76
2023/10/13 11:38:41;;;;;;;4.27;2.63;;;29.80;54.20;;;;;;5066706;28;20429;-76
2023/10/13 11:49:18;;;;;;;9.00;3.10;;;29.40;54.10;;;;;;5067022;28;20780;-78
2023/10/13 11:51:48;;;;;;;7.37;3.50;;;29.30;54.30;;;;;;5051885;28;20427;-78
2023/10/13 11:54:15;;;;;;;12.70;3.90;;;29.10;52.70;;;;;;5068062;28;20432;-77
2023/10/13 11:56:41;;;;;;;9.83;2.90;;;28.90;52.80;;;;;;5070189;28;20437;-77
2023/10/13 11:59:15;;;;;;;8.93;3.83;;;28.80;53.10;;;;;;5069718;28;20413;-79
2023/10/13 12:10:03;;;;;;;5.40;3.70;;;28.90;54.70;;;;;;5071083;28;20412;-75
2023/10/13 12:12:30;;;;;;;7.17;3.00;;;28.90;54.40;;;;;;5066856;28;20831;-75
2023/10/13 12:14:56;;;;;;;8.40;2.90;;;28.90;54.50;;;;;;5067776;28;20429;-75
2023/10/13 12:17:39;;;;;;;9.33;3.43;;;28.90;54.90;;;;;;5067764;28;20410;-75
2023/10/13 12:20:10;;;;;;;5.67;3.17;;;28.80;53.70;;;;;;5066882;28;20487;-76
2023/10/13 12:22:38;;;;;;;10.30;3.00;;;28.70;54.70;;;;;;5067828;28;20427;-74
2023/10/13 12:28:23;;;;;;;13.63;3.40;;;28.90;54.20;;;;;;5044120;28;20963;-75
2023/10/13 12:30:49;;;;;;;9.87;3.37;;;28.90;54.40;;;;;;5052617;28;20429;-73
2023/10/13 12:33:23;;;;;;;8.50;3.37;;;28.90;54.70;;;;;;5067168;28;20413;-74
2023/10/13 12:36:41;;;;;;;11.90;3.40;;;29.00;54.10;;;;;;5068252;28;20441;-74
2023/10/13 12:52:16;;;;;;;6.23;2.80;;;28.80;55.40;;;;;;5066854;28;20831;-74
2023/10/13 12:55:06;;;;;;;7.30;3.23;;;28.90;55.90;;;;;;5067208;28;20555;-74
2023/10/13 12:57:32;;;;;;;7.40;3.60;;;28.80;55.10;;;;;;5065266;28;20434;-74
2023/10/13 12:59:58;;;;;;;6.20;2.60;;;28.70;54.30;;;;;;5065620;28;20424;-73
2023/10/13 13:02:25;;;;;;;10.70;4.07;;;28.60;54.30;;;;;;5066658;28;20985;-73
2023/10/13 13:05:01;;;;;;;5.73;3.10;;;28.60;55.20;;;;;;5065399;28;20882;-73
2023/10/13 13:07:30;;;;;;;5.53;3.00;;;28.60;54.90;;;;;;5066935;28;20428;-74
2023/10/13 13:09:58;;;;;;;7.60;3.00;;;28.70;55.80;;;;;;5068973;28;20504;-74
2023/10/13 13:12:24;;;;;;;5.90;3.20;;;28.60;55.70;;;;;;5070571;28;20504;-74
2023/10/13 13:14:54;;;;;;;6.63;3.20;;;28.60;55.50;;;;;;5068961;28;20431;-72
2023/10/13 13:17:23;;;;;;;9.80;3.23;;;28.30;54.60;;;;;;5070290;28;20441;-74
2023/10/13 13:19:49;;;;;;;7.17;4.60;;;28.50;55.80;;;;;;5070559;28;20427;-73
2023/10/13 13:22:15;;;;;;;5.60;2.57;;;28.60;54.70;;;;;;5070440;28;20421;-74
2023/10/13 13:24:46;;;;;;;13.33;3.50;;;28.60;54.30;;;;;;5052122;28;20214;-74
2023/10/13 13:27:13;;;;;;;6.20;2.90;;;28.70;55.10;;;;;;5068277;28;21025;-74
2023/10/13 13:29:40;;;;;;;8.03;2.40;;;28.70;55.70;;;;;;5069987;28;20942;-74
2023/10/13 13:32:17;;;;;;;4.57;3.43;;;28.50;55.20;;;;;;5070153;28;21189;-74
2023/10/13 13:34:42;;;;;;;6.37;3.00;;;28.60;54.20;;;;;;5068337;28;20436;-74
2023/10/13 13:37:12;;;;;;;5.50;3.00;;;28.50;55.20;;;;;;5051519;28;20955;-75
2023/10/13 13:39:43;;;;;;;6.53;3.00;;;28.70;55.70;;;;;;5068366;28;20183;-75
2023/10/13 13:42:09;;;;;;;10.13;3.53;;;28.80;55.30;;;;;;5069776;28;20422;-75
2023/10/13 13:44:38;;;;;;;10.73;3.00;;;28.70;55.80;;;;;;5068316;28;20468;-75
2023/10/13 13:47:11;;;;;;;8.20;3.43;;;28.70;56.30;;;;;;5069656;28;20444;-75
2023/10/13 13:49:50;;;;;;;5.70;3.17;;;28.50;53.60;;;;;;5068303;28;20554;-74
2023/10/13 13:52:21;;;;;;;5.10;2.83;;;28.40;54.10;;;;;;5069565;28;20417;-74
2023/10/13 13:54:47;;;;;;;8.00;3.33;;;28.20;54.60;;;;;;5069505;28;20429;-74
2023/10/13 13:57:13;;;;;;;10.73;3.40;;;28.40;55.70;;;;;;5069473;28;20964;-74
2023/10/13 13:59:39;;;;;;;8.83;3.97;;;28.30;56.00;;;;;;5068090;28;20425;-74
2023/10/13 14:02:18;;;;;;;6.30;3.20;;;28.30;54.70;;;;;;5067712;28;20214;-74
2023/10/13 14:04:46;;;;;;;9.57;3.33;;;28.30;56.40;;;;;;5068124;28;20828;-74
2023/10/13 14:07:14;;;;;;;6.20;3.17;;;28.30;55.20;;;;;;5069289;28;21005;-74
2023/10/13 14:09:43;;;;;;;5.43;3.03;;;28.10;54.00;;;;;;5067837;28;21022;-74
2023/10/13 14:14:55;;;;;;;9.83;3.60;;;28.10;56.50;;;;;;5069335;28;20415;-74
2023/10/13 14:17:30;;;;;;;8.80;3.40;;;28.10;55.30;;;;;;5068895;28;20445;-74
2023/10/13 14:19:59;;;;;;;9.33;3.37;;;28.00;54.90;;;;;;5051992;28;20437;-73
2023/10/13 14:22:25;;;;;;;14.13;3.03;;;27.90;55.00;;;;;;5066845;28;20428;-73
2023/10/13 14:24:55;;;;;;;6.43;3.13;;;28.00;55.40;;;;;;5068973;28;20463;-74
2023/10/13 14:27:23;;;;;;;5.03;3.30;;;28.00;55.70;;;;;;5069205;28;20886;-73
2023/10/13 14:29:52;;;;;;;8.30;3.27;;;28.00;55.20;;;;;;5067622;28;20509;-74
2023/10/13 14:32:19;;;;;;;12.77;4.00;;;28.00;55.70;;;;;;5069385;28;21098;-73
2023/10/13 14:34:54;;;;;;;7.13;2.90;;;27.90;55.50;;;;;;5067146;28;20433;-73
2023/10/13 14:37:26;;;;;;;6.00;3.07;;;27.90;56.60;;;;;;5067400;28;20441;-73
2023/10/13 14:39:56;;;;;;;12.07;4.00;;;27.70;56.40;;;;;;5067455;28;20402;-73
2023/10/13 14:42:23;;;;;;;7.07;3.27;;;27.80;57.60;;;;;;5069145;28;20418;-74
2023/10/13 14:44:55;;;;;;;15.07;3.80;;;27.80;55.80;;;;;;5068728;28;20460;-74
2023/10/13 14:47:24;;;;;;;7.27;3.20;;;27.70;56.90;;;;;;5067110;28;20556;-73
2023/10/13 14:50:01;;;;;;;5.60;3.20;;;27.60;56.20;;;;;;5067428;28;20826;-73
2023/10/13 14:52:31;;;;;;;6.93;3.27;;;27.50;55.90;;;;;;5067123;28;20421;-73
2023/10/13 14:54:57;;;;;;;9.40;3.27;;;27.40;56.50;;;;;;5068617;28;21057;-74
2023/10/13 14:57:27;;;;;;;5.40;2.90;;;27.40;56.30;;;;;;5067057;28;20429;-73
2023/10/13 14:59:57;;;;;;;7.03;3.60;;;27.40;56.00;;;;;;5068581;28;20428;-75
2023/10/13 15:02:23;;;;;;;5.87;3.07;;;27.20;56.80;;;;;;5068540;28;20452;-73
2023/10/13 15:04:49;;;;;;;4.50;2.50;;;27.20;55.80;;;;;;5066756;28;20456;-74
2023/10/13 15:07:16;;;;;;;10.23;3.30;;;27.10;54.90;;;;;;5066619;28;20200;-74
2023/10/13 15:09:42;;;;;;;5.57;3.20;;;27.00;55.60;;;;;;5068621;28;20819;-74
2023/10/13 15:12:11;;;;;;;2.97;2.70;;;26.90;55.10;;;;;;5068238;28;20834;-74
2023/10/13 15:14:39;;;;;;;12.47;2.90;;;26.80;53.70;;;;;;5066798;28;20425;-74
2023/10/13 15:17:06;;;;;;;10.00;2.97;;;26.70;54.90;;;;;;5066837;28;21058;-74
2023/10/13 15:19:35;;;;;;;5.93;2.40;;;26.70;54.80;;;;;;5068166;28;20434;-74
2023/10/13 15:22:02;;;;;;;6.90;3.60;;;26.60;54.70;;;;;;5066622;28;20429;-74
2023/10/13 15:24:28;;;;;;;8.30;2.77;;;26.50;55.40;;;;;;5067956;28;20468;-75
2023/10/13 15:27:08;;;;;;;15.67;3.17;;;26.40;55.60;;;;;;5067963;28;20804;-75
2023/10/13 15:29:36;;;;;;;9.63;3.13;;;26.40;54.60;;;;;;5067894;28;20171;-74
2023/10/13 15:34:28;;;;;;;7.30;3.03;;;26.30;55.20;;;;;;5068239;28;20463;-75
2023/10/13 15:36:55;;;;;;;10.70;2.53;;;26.20;54.60;;;;;;5068038;28;20441;-74
2023/10/13 15:39:28;;;;;;;4.10;2.50;;;26.20;54.50;;;;;;5066625;28;20452;-74
2023/10/13 15:41:58;;;;;;;13.23;2.63;;;26.10;55.10;;;;;;5068176;28;20494;-74
2023/10/13 15:44:29;;;;;;;6.97;2.33;;;26.00;55.80;;;;;;5066555;28;20565;-74
2023/10/13 15:46:57;;;;;;;5.90;2.53;;;26.00;55.20;;;;;;5066486;28;20455;-74
2023/10/13 15:49:23;;;;;;;6.10;2.70;;;25.80;55.50;;;;;;5068224;28;20429;-74
2023/10/13 15:51:49;;;;;;;5.47;2.63;;;25.70;55.20;;;;;;5068103;28;20449;-74
2023/10/13 15:54:17;;;;;;;5.80;2.57;;;25.70;55.00;;;;;;5068064;28;20416;-74
2023/10/13 15:56:44;;;;;;;4.10;2.80;;;25.70;54.00;;;;;;5066452;28;20452;-74
2023/10/13 15:59:10;;;;;;;10.03;2.60;;;25.60;54.00;;;;;;5068369;28;20791;-73
2023/10/13 16:01:38;;;;;;;14.23;3.17;;;25.70;53.90;;;;;;5068006;28;20457;-73
2023/10/13 16:04:10;;;;;;;6.53;3.30;;;25.40;54.30;;;;;;5066608;28;20521;-74
2023/10/13 16:06:40;;;;;;;12.17;3.53;;;25.00;54.80;;;;;;5067764;28;20433;-74
2023/10/13 16:09:19;;;;;;;30.63;3.70;;;24.70;55.90;;;;;;5067547;28;20415;-74
2023/10/13 16:11:45;;;;;;;17.07;3.40;;;24.40;56.30;;;;;;5067465;28;20498;-75
2023/10/13 16:14:15;;;;;;;12.87;4.30;;;24.40;57.50;;;;;;5067328;28;20988;-74
2023/10/13 16:16:46;;;;;;;8.00;3.10;;;24.50;59.50;;;;;;5049318;28;20484;-74